Alva, Mississippi
Current Conditions -  °F | °C
As of 3:15 PM on Sunday 23 Nov 2014 (Local Time) from KGNF Reporting Station
Moderate Rain Moderate Rain  
Wind Chill: 16°   Ceiling: 1400
Heat Index: 16°   Visibility: 2.5mi
Dew Point: 15°   Wind: 13mph
Humidity: 94%   Direction: 240°WSW
Pressure: 29.43"   Gusts: 36mph
Location:  33.6702°N, 89.6861°W
Report Text: KGNF 232115Z AUTO 24011G31KT 212V272 2 1/2SM RA BKN014 OVC020 16/15 A2943 RMK AO2 P0002
Loading
Personal Weather Stations






























Interactive Weather Map New forecast layout! Learn more

10-Day Weather Forecast

Advertisements
Track Severe Weather on mobile